createdAt,value
2022-10-04T00:00:41.795Z,2.35
2022-10-04T00:03:22.516Z,2.75
2022-10-04T00:05:52.243Z,2.47
2022-10-04T00:08:47.211Z,2.50
2022-10-04T00:11:22.481Z,2.50
2022-10-04T00:13:53.114Z,3.55
2022-10-04T00:16:40.705Z,2.50
2022-10-04T00:19:16.039Z,3.28
2022-10-04T00:21:57.589Z,2.30
2022-10-04T00:24:26.824Z,2.40
2022-10-04T00:26:53.262Z,2.33
2022-10-04T00:29:36.550Z,2.67
2022-10-04T00:32:11.916Z,2.33
2022-10-04T00:34:47.617Z,2.83
2022-10-04T00:37:16.221Z,2.65
2022-10-04T00:39:45.518Z,2.30
2022-10-04T00:42:30.907Z,2.92
2022-10-04T00:45:06.469Z,2.47
2022-10-04T00:48:16.569Z,2.77
2022-10-04T00:50:51.315Z,2.22
2022-10-04T00:53:36.366Z,2.80
2022-10-04T00:56:09.272Z,2.80
2022-10-04T00:59:06.163Z,3.22
2022-10-04T01:01:35.955Z,3.37
2022-10-04T01:04:06.766Z,3.83
2022-10-04T01:06:35.641Z,4.07
2022-10-04T01:09:07.852Z,3.30
2022-10-04T01:11:40.819Z,4.30
2022-10-04T01:14:13.401Z,3.30
2022-10-04T01:16:40.093Z,4.20
2022-10-04T01:19:24.489Z,4.10
2022-10-04T01:22:37.000Z,4.43
2022-10-04T01:25:04.444Z,3.65
2022-10-04T01:27:44.762Z,4.13
2022-10-04T01:30:14.724Z,4.32
2022-10-04T01:32:41.344Z,3.95
2022-10-04T01:35:11.681Z,3.60
2022-10-04T01:37:42.200Z,4.18
2022-10-04T01:40:10.033Z,3.73
2022-10-04T01:42:42.887Z,4.90
2022-10-04T01:45:34.208Z,4.82
2022-10-04T01:48:03.987Z,5.15
2022-10-04T01:50:35.607Z,5.28
2022-10-04T01:53:14.249Z,5.10
2022-10-04T01:55:44.756Z,4.40
2022-10-04T01:58:18.796Z,4.80
2022-10-04T02:01:23.629Z,4.63
2022-10-04T02:04:03.993Z,4.70
2022-10-04T02:06:38.033Z,5.00
2022-10-04T02:09:18.422Z,4.80
2022-10-04T02:11:50.876Z,5.25
2022-10-04T02:14:20.812Z,5.00
2022-10-04T02:16:52.168Z,5.57
2022-10-04T02:19:19.637Z,4.83
2022-10-04T02:21:47.957Z,5.63
2022-10-04T02:24:15.000Z,6.28
2022-10-04T02:26:41.614Z,6.07
2022-10-04T02:29:09.962Z,4.93
2022-10-04T02:31:56.956Z,5.80
2022-10-04T02:34:23.471Z,5.45
2022-10-04T02:36:51.667Z,5.45
2022-10-04T02:39:32.111Z,6.18
2022-10-04T02:42:09.169Z,5.43
2022-10-04T02:44:52.662Z,5.50
2022-10-04T02:47:27.525Z,5.18
2022-10-04T02:49:58.509Z,5.57
2022-10-04T02:52:39.308Z,5.55
2022-10-04T02:55:17.923Z,5.50
2022-10-04T02:57:45.357Z,5.23
2022-10-04T03:00:24.612Z,5.43
2022-10-04T03:03:28.284Z,5.95
2022-10-04T03:06:00.830Z,6.65
2022-10-04T03:08:29.138Z,6.00
2022-10-04T03:10:59.184Z,6.73
2022-10-04T03:13:26.588Z,6.03
2022-10-04T03:15:53.276Z,6.35
2022-10-04T03:18:20.613Z,6.45
2022-10-04T03:20:47.798Z,6.32
2022-10-04T03:23:17.440Z,6.73
2022-10-04T03:26:00.976Z,6.55
2022-10-04T03:28:29.355Z,6.50
2022-10-04T03:30:58.058Z,6.47
2022-10-04T03:33:27.393Z,5.63
2022-10-04T03:35:56.988Z,6.70
2022-10-04T03:38:26.354Z,5.57
2022-10-04T03:40:59.162Z,5.70
2022-10-04T03:43:31.667Z,6.85
2022-10-04T03:46:02.144Z,6.47
2022-10-04T03:48:35.746Z,6.70
2022-10-04T03:51:05.106Z,5.97
2022-10-04T03:53:37.240Z,6.20
2022-10-04T03:56:29.827Z,6.53
2022-10-04T03:58:57.189Z,5.88
2022-10-04T04:01:35.571Z,6.13
2022-10-04T04:04:11.198Z,6.05
2022-10-04T04:06:46.309Z,5.72
2022-10-04T04:09:47.307Z,5.80
2022-10-04T04:12:34.125Z,6.18
2022-10-04T04:15:01.460Z,5.50
2022-10-04T04:17:27.796Z,5.72
2022-10-04T04:19:58.608Z,6.50
2022-10-04T04:22:31.249Z,6.22
2022-10-04T04:25:04.863Z,5.70
2022-10-04T04:27:36.222Z,5.60
2022-10-04T04:30:04.727Z,6.18
2022-10-04T04:32:36.543Z,5.47
2022-10-04T04:35:08.297Z,6.43
2022-10-04T04:37:35.802Z,5.30
2022-10-04T04:40:22.062Z,6.30
2022-10-04T04:42:51.335Z,5.60
2022-10-04T04:45:22.882Z,5.88
2022-10-04T04:47:54.011Z,5.45
2022-10-04T04:50:23.661Z,6.28
2022-10-04T04:52:58.480Z,5.50
2022-10-04T04:55:49.985Z,5.20
2022-10-04T04:58:24.069Z,5.68
2022-10-04T05:00:58.804Z,5.32
2022-10-04T05:03:26.016Z,5.40
2022-10-04T05:05:54.764Z,5.37
2022-10-04T05:08:27.668Z,5.13
2022-10-04T05:11:06.115Z,5.35
2022-10-04T05:13:43.683Z,5.72
2022-10-04T05:16:16.672Z,5.20
2022-10-04T05:18:43.557Z,5.07
2022-10-04T05:21:44.646Z,6.00
2022-10-04T05:24:20.710Z,5.50
2022-10-04T05:26:51.318Z,4.75
2022-10-04T05:29:21.249Z,5.45
2022-10-04T05:32:08.884Z,5.33
2022-10-04T05:34:41.219Z,5.55
2022-10-04T05:37:35.050Z,5.80
2022-10-04T05:40:13.634Z,5.53
2022-10-04T05:42:45.981Z,5.25
2022-10-04T05:45:27.442Z,5.37
2022-10-04T05:47:55.904Z,5.43
2022-10-04T05:50:35.638Z,6.15
2022-10-04T05:53:32.933Z,5.78
2022-10-04T05:56:30.472Z,6.32
2022-10-04T05:59:30.398Z,5.67
2022-10-04T06:02:27.789Z,5.93
2022-10-04T06:05:42.276Z,6.57
2022-10-04T06:08:39.581Z,6.15
2022-10-04T06:11:29.426Z,6.32
2022-10-04T06:14:31.713Z,6.40
2022-10-04T06:17:22.677Z,6.97
2022-10-04T06:20:10.737Z,6.20
2022-10-04T06:22:47.826Z,5.95
2022-10-04T06:25:47.106Z,6.40
2022-10-04T06:28:25.084Z,6.97
2022-10-04T06:31:19.857Z,7.75
2022-10-04T06:34:12.676Z,6.90
2022-10-04T06:37:10.508Z,6.93
2022-10-04T06:40:09.294Z,6.43
2022-10-04T06:42:50.434Z,6.90
2022-10-04T06:45:35.200Z,7.10
2022-10-04T06:48:25.891Z,6.88
2022-10-04T06:51:03.748Z,6.32
2022-10-04T06:53:50.372Z,7.25
2022-10-04T06:56:41.467Z,7.63
2022-10-04T06:59:24.491Z,6.90
2022-10-04T07:01:58.825Z,6.38
2022-10-04T07:05:11.379Z,6.47
2022-10-04T07:07:42.274Z,6.30
2022-10-04T07:10:23.736Z,7.00
2022-10-04T07:13:13.114Z,6.00
2022-10-04T07:15:55.394Z,6.78
2022-10-04T07:18:49.524Z,7.28
2022-10-04T07:21:17.953Z,5.93
2022-10-04T07:23:56.401Z,6.07
2022-10-04T07:26:33.072Z,6.82
2022-10-04T07:29:21.604Z,5.95
2022-10-04T07:31:53.687Z,5.82
2022-10-04T07:34:28.192Z,5.80
2022-10-04T07:36:59.196Z,5.60
2022-10-04T07:39:33.251Z,5.78
2022-10-04T07:42:37.205Z,5.72
2022-10-04T07:45:29.742Z,5.97
2022-10-04T07:48:24.748Z,5.80
2022-10-04T07:51:23.742Z,5.63
2022-10-04T07:54:05.081Z,5.03
2022-10-04T07:56:47.319Z,5.32
2022-10-04T07:59:41.749Z,5.32
2022-10-04T08:02:11.778Z,4.55
2022-10-04T08:04:55.464Z,5.33
2022-10-04T08:07:31.652Z,5.55
2022-10-04T08:10:18.970Z,5.00
2022-10-04T08:12:54.363Z,5.70
2022-10-04T08:15:51.866Z,5.68
2022-10-04T08:18:33.296Z,4.70
2022-10-04T08:21:03.988Z,5.28
2022-10-04T08:23:58.303Z,4.57
2022-10-04T08:26:36.737Z,4.10
2022-10-04T08:29:43.293Z,4.78
2022-10-04T08:32:34.578Z,3.90
2022-10-04T08:35:27.574Z,4.22
2022-10-04T08:38:21.757Z,4.13
2022-10-04T08:41:24.207Z,4.40
2022-10-04T08:44:37.953Z,4.10
2022-10-04T08:47:28.522Z,3.23
2022-10-04T08:50:06.825Z,3.90
2022-10-04T08:52:59.127Z,3.95
2022-10-04T08:55:47.684Z,3.90
2022-10-04T08:58:15.943Z,3.42
2022-10-04T09:01:33.342Z,3.40
2022-10-04T09:04:45.138Z,4.13
2022-10-04T09:08:07.864Z,4.47
2022-10-04T09:11:02.228Z,4.32
2022-10-04T09:13:40.161Z,4.10
2022-10-04T09:16:17.464Z,3.67
2022-10-04T09:19:16.697Z,3.47
2022-10-04T09:22:03.002Z,3.88
2022-10-04T09:25:09.039Z,3.50
2022-10-04T09:28:15.298Z,3.00
2022-10-04T09:31:07.038Z,3.73
2022-10-04T09:34:01.076Z,3.95
2022-10-04T09:37:07.126Z,3.63
2022-10-04T09:39:59.037Z,3.90
2022-10-04T09:43:01.709Z,3.45
2022-10-04T09:45:52.713Z,3.40
2022-10-04T09:48:30.779Z,4.00
2022-10-04T09:51:19.178Z,3.42
2022-10-04T09:53:58.686Z,3.72
2022-10-04T09:56:38.093Z,3.30
2022-10-04T09:59:35.281Z,3.60
2022-10-04T10:02:29.029Z,3.38
2022-10-04T10:05:28.989Z,3.28
2022-10-04T10:08:14.180Z,3.67
2022-10-04T10:11:29.424Z,3.55
2022-10-04T10:14:18.552Z,3.90
2022-10-04T10:17:00.961Z,4.35
2022-10-04T10:19:45.029Z,3.60
2022-10-04T10:22:28.999Z,3.72
2022-10-04T10:25:21.649Z,3.67
2022-10-04T10:28:04.284Z,3.23
2022-10-04T10:30:51.070Z,3.45
2022-10-04T10:34:02.025Z,3.30
2022-10-04T10:36:44.410Z,4.00
2022-10-04T10:39:48.263Z,4.50
2022-10-04T10:42:27.522Z,3.80
2022-10-04T10:45:15.370Z,3.40
2022-10-04T10:48:13.390Z,3.83
2022-10-04T10:51:10.385Z,3.50
2022-10-04T10:53:48.032Z,2.60
2022-10-04T10:56:45.864Z,3.20
2022-10-04T10:59:15.375Z,3.22
2022-10-04T11:02:07.154Z,2.92
2022-10-04T11:04:51.397Z,2.88
2022-10-04T11:07:43.594Z,2.83
2022-10-04T11:10:29.230Z,3.00
2022-10-04T11:13:18.941Z,2.78
2022-10-04T11:16:01.819Z,2.28
2022-10-04T11:18:49.835Z,2.45
2022-10-04T11:21:50.301Z,2.08
2022-10-04T11:24:35.323Z,3.27
2022-10-04T11:27:47.800Z,3.13
2022-10-04T11:30:23.452Z,2.42
2022-10-04T11:32:56.159Z,2.10
2022-10-04T11:35:46.016Z,2.08
2022-10-04T11:38:35.539Z,2.10
2022-10-04T11:41:31.745Z,1.98
2022-10-04T11:44:20.992Z,1.70
2022-10-04T11:47:02.401Z,2.60
2022-10-04T11:49:37.720Z,2.10
2022-10-04T11:52:30.533Z,2.10
2022-10-04T11:55:21.016Z,2.50
2022-10-04T11:58:26.118Z,2.90
2022-10-04T12:01:04.939Z,2.03
2022-10-04T12:04:15.952Z,3.33
2022-10-04T12:07:22.613Z,2.53
2022-10-04T12:10:01.750Z,2.70
2022-10-04T12:12:50.512Z,2.00
2022-10-04T12:15:30.222Z,2.05
2022-10-04T12:18:19.742Z,1.90
2022-10-04T12:21:12.560Z,1.93
2022-10-04T12:24:15.871Z,2.28
2022-10-04T12:27:19.709Z,2.00
2022-10-04T12:30:23.813Z,1.73
2022-10-04T12:32:57.802Z,1.60
2022-10-04T12:35:36.914Z,2.17
2022-10-04T12:38:23.550Z,1.65
2022-10-04T12:41:24.198Z,2.65
2022-10-04T12:44:40.844Z,1.48
2022-10-04T12:47:28.897Z,2.17
2022-10-04T12:50:04.309Z,1.70
2022-10-04T12:52:46.886Z,1.60
2022-10-04T12:55:52.753Z,2.15
2022-10-04T12:58:34.299Z,1.83
2022-10-04T13:01:48.891Z,1.90
2022-10-04T13:04:23.134Z,1.30
2022-10-04T13:07:04.133Z,1.33
2022-10-04T13:10:25.986Z,1.90
2022-10-04T13:13:10.461Z,1.30
2022-10-04T13:18:53.613Z,1.43
2022-10-04T13:21:38.891Z,1.45
2022-10-04T13:24:05.402Z,1.30
2022-10-04T13:26:44.177Z,1.67
2022-10-04T13:29:37.037Z,1.67
2022-10-04T13:32:15.980Z,1.30
2022-10-04T13:35:20.896Z,1.42
2022-10-04T13:37:59.858Z,1.85
2022-10-04T13:40:28.984Z,1.75
2022-10-04T13:43:23.299Z,1.80
2022-10-04T13:46:16.020Z,1.33
2022-10-04T13:49:18.630Z,1.50
2022-10-04T13:52:31.936Z,2.10
2022-10-04T13:55:35.864Z,1.73
2022-10-04T13:58:33.054Z,1.88
2022-10-04T14:01:15.474Z,1.43
2022-10-04T14:03:58.327Z,1.90
2022-10-04T14:06:33.803Z,2.55
2022-10-04T14:09:16.880Z,1.70
2022-10-04T14:12:11.389Z,2.13
2022-10-04T14:14:56.751Z,2.27
2022-10-04T14:17:43.342Z,2.05
2022-10-04T14:20:34.525Z,2.22
2022-10-04T14:23:37.513Z,2.00
2022-10-04T14:26:18.943Z,2.60
2022-10-04T14:29:20.259Z,1.70
2022-10-04T14:32:04.920Z,2.15
2022-10-04T14:34:55.218Z,2.50
2022-10-04T14:37:58.736Z,2.28
2022-10-04T14:40:49.921Z,1.80
2022-10-04T14:43:31.420Z,2.13
2022-10-04T14:46:31.905Z,1.90
2022-10-04T14:49:07.920Z,1.90
2022-10-04T14:52:06.472Z,2.05
2022-10-04T14:54:53.068Z,2.42
2022-10-04T14:57:38.391Z,1.80
2022-10-04T15:00:19.654Z,1.95
2022-10-04T15:03:14.481Z,2.10
2022-10-04T15:05:58.214Z,2.00
2022-10-04T15:08:45.945Z,1.83
2022-10-04T15:11:19.739Z,1.37
2022-10-04T15:13:55.647Z,1.33
2022-10-04T15:16:42.860Z,1.35
2022-10-04T15:19:44.285Z,1.30
2022-10-04T15:22:31.050Z,1.30
2022-10-04T15:24:59.416Z,1.80
2022-10-04T15:27:32.765Z,1.50
2022-10-04T15:30:30.803Z,1.02
2022-10-04T15:33:09.133Z,1.75
2022-10-04T15:35:58.229Z,1.55
2022-10-04T15:38:53.689Z,1.50
2022-10-04T15:41:43.976Z,1.48
2022-10-04T15:44:16.792Z,2.10
2022-10-04T15:47:07.414Z,1.42
2022-10-04T15:49:57.062Z,1.55
2022-10-04T15:53:06.292Z,1.60
2022-10-04T15:55:35.764Z,1.73
2022-10-04T15:58:30.992Z,1.83
2022-10-04T16:01:19.616Z,2.08
2022-10-04T16:04:33.267Z,1.80
2022-10-04T16:07:27.932Z,1.50
2022-10-04T16:10:15.722Z,1.02
2022-10-04T16:13:00.450Z,1.65
2022-10-04T16:15:38.496Z,1.65
2022-10-04T16:18:26.492Z,1.27
2022-10-04T16:21:30.364Z,1.30
2022-10-04T16:24:21.768Z,1.42
2022-10-04T16:26:50.949Z,1.63
2022-10-04T16:29:23.442Z,1.40
2022-10-04T16:32:05.049Z,2.08
2022-10-04T16:34:42.097Z,1.20
2022-10-04T16:37:23.593Z,1.50
2022-10-04T16:40:03.544Z,1.63
2022-10-04T16:42:44.951Z,1.60
2022-10-04T16:45:11.811Z,2.30
2022-10-04T16:48:02.213Z,1.57
2022-10-04T16:50:49.420Z,2.08
2022-10-04T16:53:33.063Z,2.78
2022-10-04T16:56:12.276Z,1.77
2022-10-04T16:58:59.640Z,1.70
2022-10-04T17:01:29.612Z,1.80
2022-10-04T17:03:55.958Z,1.90
2022-10-04T17:06:42.032Z,2.20
2022-10-04T17:09:18.781Z,1.98
2022-10-04T17:12:05.463Z,1.58
2022-10-04T17:15:04.962Z,1.37
2022-10-04T17:17:53.433Z,1.75
2022-10-04T17:20:41.258Z,2.20
2022-10-04T17:23:35.693Z,1.95
2022-10-04T17:26:18.101Z,1.80
2022-10-04T17:28:56.331Z,1.83
2022-10-04T17:31:41.404Z,2.25
2022-10-04T17:34:13.871Z,1.73
2022-10-04T17:36:44.942Z,1.85
2022-10-04T17:39:24.412Z,2.53
2022-10-04T17:42:09.577Z,2.03
2022-10-04T17:44:54.263Z,2.30
2022-10-04T17:48:01.536Z,2.22
2022-10-04T17:51:14.517Z,2.08
2022-10-04T17:54:19.576Z,2.20
2022-10-04T17:56:51.056Z,2.37
2022-10-04T17:59:31.089Z,2.33
2022-10-04T18:02:17.525Z,2.70
2022-10-04T18:05:14.699Z,2.80
2022-10-04T18:07:47.773Z,2.70
2022-10-04T18:10:30.208Z,2.67
2022-10-04T18:13:12.799Z,2.78
2022-10-04T18:15:48.346Z,2.70
2022-10-04T18:18:21.185Z,2.40
2022-10-04T18:20:53.439Z,2.90
2022-10-04T18:23:31.224Z,2.47
2022-10-04T18:26:01.315Z,2.25
2022-10-04T18:28:27.893Z,2.80
2022-10-04T18:31:00.341Z,3.20
2022-10-04T18:33:48.173Z,2.40
2022-10-04T18:36:19.073Z,2.40
2022-10-04T18:38:57.996Z,2.13
2022-10-04T18:41:44.769Z,2.15
2022-10-04T18:44:16.673Z,2.15
2022-10-04T18:46:48.139Z,2.27
2022-10-04T18:49:20.977Z,3.15
2022-10-04T18:52:09.264Z,2.67
2022-10-04T18:55:04.416Z,2.42
2022-10-04T18:57:58.852Z,2.90
2022-10-04T19:00:59.462Z,2.30
2022-10-04T19:03:33.483Z,2.60
2022-10-04T19:06:20.179Z,2.40
2022-10-04T19:09:05.431Z,2.85
2022-10-04T19:11:44.063Z,2.38
2022-10-04T19:14:40.731Z,3.33
2022-10-04T19:17:23.856Z,2.08
2022-10-04T19:20:23.177Z,2.73
2022-10-04T19:23:11.932Z,2.95
2022-10-04T19:26:10.027Z,3.05
2022-10-04T19:28:37.612Z,2.90
2022-10-04T19:31:34.025Z,2.58
2022-10-04T19:34:46.171Z,2.70
2022-10-04T19:37:22.605Z,3.17
2022-10-04T19:39:56.735Z,3.20
2022-10-04T19:42:38.762Z,2.92
2022-10-04T19:45:20.459Z,2.67
2022-10-04T19:47:56.442Z,2.40
2022-10-04T19:50:42.130Z,2.75
2022-10-04T19:53:42.498Z,2.23
2022-10-04T19:56:26.405Z,2.22
2022-10-04T19:59:04.674Z,2.58
2022-10-04T20:01:31.165Z,2.38
2022-10-04T20:04:16.561Z,2.20
2022-10-04T20:06:56.724Z,2.40
2022-10-04T20:09:31.144Z,2.30
2022-10-04T20:11:58.221Z,2.05
2022-10-04T20:14:27.557Z,2.70
2022-10-04T20:16:57.418Z,2.40
2022-10-04T20:19:30.013Z,2.73
2022-10-04T20:22:27.475Z,2.75
2022-10-04T20:24:53.970Z,2.40
2022-10-04T20:27:30.338Z,1.88
2022-10-04T20:30:03.988Z,2.40
2022-10-04T20:32:30.466Z,2.80
2022-10-04T20:34:57.856Z,2.40
2022-10-04T20:37:44.506Z,2.53
2022-10-04T20:40:31.467Z,2.63
2022-10-04T20:43:13.214Z,2.63
2022-10-04T20:45:54.864Z,2.33
2022-10-04T20:48:28.928Z,2.55
2022-10-04T20:50:55.887Z,3.65
2022-10-04T20:53:28.319Z,2.75
2022-10-04T20:56:13.530Z,2.67
2022-10-04T20:58:41.117Z,2.70
2022-10-04T21:01:31.109Z,2.00
2022-10-04T21:04:35.008Z,2.53
2022-10-04T21:07:04.178Z,2.53
2022-10-04T21:09:31.440Z,1.90
2022-10-04T21:11:59.139Z,2.20
2022-10-04T21:14:33.718Z,2.85
2022-10-04T21:17:05.825Z,2.38
2022-10-04T21:19:32.376Z,2.45
2022-10-04T21:22:07.341Z,2.85
2022-10-04T21:24:45.970Z,2.23
2022-10-04T21:27:29.871Z,2.50
2022-10-04T21:29:57.155Z,1.92
2022-10-04T21:32:25.369Z,2.38
2022-10-04T21:34:53.866Z,2.95
2022-10-04T21:37:21.282Z,2.53
2022-10-04T21:39:47.873Z,3.30
2022-10-04T21:42:14.609Z,2.35
2022-10-04T21:44:42.427Z,2.92
2022-10-04T21:47:09.186Z,2.75
2022-10-04T21:49:36.118Z,2.60
2022-10-04T21:52:02.829Z,2.42
2022-10-04T21:54:29.309Z,2.88
2022-10-04T21:56:56.119Z,3.28
2022-10-04T21:59:22.569Z,2.70
2022-10-04T22:01:49.000Z,3.47
2022-10-04T22:04:15.772Z,2.97
2022-10-04T22:06:42.822Z,3.97
2022-10-04T22:09:09.926Z,3.45
2022-10-04T22:11:36.496Z,3.05
2022-10-04T22:14:03.346Z,3.27
2022-10-04T22:16:30.056Z,3.10
2022-10-04T22:18:56.490Z,3.22
2022-10-04T22:21:22.979Z,3.85
2022-10-04T22:23:49.434Z,3.50
2022-10-04T22:26:19.194Z,3.23
2022-10-04T22:28:50.984Z,3.83
2022-10-04T22:31:30.231Z,3.53
2022-10-04T22:33:56.681Z,3.47
2022-10-04T22:36:41.287Z,3.27
2022-10-04T22:39:32.075Z,3.92
2022-10-04T22:42:07.108Z,3.63
2022-10-04T22:44:45.148Z,4.00
2022-10-04T22:47:21.557Z,3.40
2022-10-04T22:49:58.871Z,3.78
2022-10-04T22:52:29.811Z,4.50
2022-10-04T22:58:28.929Z,3.70
2022-10-04T23:00:43.147Z,4.20
2022-10-04T23:06:17.890Z,4.75
2022-10-04T23:08:51.098Z,3.63
2022-10-04T23:11:17.622Z,4.87
2022-10-04T23:14:17.763Z,4.30
2022-10-04T23:17:19.566Z,5.00
2022-10-04T23:20:36.317Z,4.35
2022-10-04T23:25:05.066Z,3.38
2022-10-04T23:26:50.821Z,4.10
2022-10-04T23:29:23.216Z,4.25
2022-10-04T23:35:07.816Z,3.92
2022-10-04T23:37:41.607Z,4.57
2022-10-04T23:43:55.833Z,4.05
2022-10-04T23:46:34.668Z,4.00
2022-10-04T23:49:07.519Z,3.67
2022-10-04T23:51:52.881Z,3.67
2022-10-04T23:54:23.191Z,3.70
2022-10-04T23:57:07.347Z,3.53
2022-10-04T23:59:36.054Z,3.60
